FWV9 LOWI-LIMJ
Flight info
| Callsign | FWV9 |
|---|---|
| Flight time | N/A |
| Altitude | 19000 |
| Route | BRENO M726 NAXAV M984 LUSIL |
| Aircraft | A320/M-SDE3FGHIRWY/LB1 |
Departure
| Time | 2026-05-01 13:48 |
|---|---|
| Airport | Innsbruck Airport (LOWI) |
Arrival
| Time | N/A |
|---|---|
| Airport | Genoa Cristoforo Colombo Airport (LIMJ) |
| Time | Latitude | Longitude | Altitude | Speed | Heading |
|---|---|---|---|---|---|
| 2026-05-01 13:18 | 47.25795 | 11.34812 | 1904 ft | 0 kts | 171° |
| 2026-05-01 13:37 | 47.25801 | 11.34811 | 1904 ft | 4 kts | 171° |
| 2026-05-01 13:37 | 47.25825 | 11.34805 | 1891 ft | 2 kts | 171° |
| 2026-05-01 13:37 | 47.25845 | 11.34797 | 1890 ft | 4 kts | 123° |
| 2026-05-01 13:38 | 47.25846 | 11.34748 | 1894 ft | 0 kts | 81° |
| 2026-05-01 13:42 | 47.25846 | 11.34751 | 1904 ft | 3 kts | 81° |
| 2026-05-01 13:43 | 47.25849 | 11.34781 | 1894 ft | 0 kts | 81° |
| 2026-05-01 13:43 | 47.25854 | 11.34824 | 1899 ft | 8 kts | 81° |
| 2026-05-01 13:43 | 47.25863 | 11.34898 | 1904 ft | 9 kts | 81° |
| 2026-05-01 13:43 | 47.25876 | 11.35025 | 1904 ft | 14 kts | 81° |
| 2026-05-01 13:44 | 47.25892 | 11.35169 | 1904 ft | 15 kts | 81° |
| 2026-05-01 13:44 | 47.25918 | 11.35283 | 1894 ft | 10 kts | 29° |
| 2026-05-01 13:44 | 47.25976 | 11.35278 | 1898 ft | 0 kts | 350° |
| 2026-05-01 13:45 | 47.25977 | 11.35278 | 1899 ft | 1 kts | 350° |
| 2026-05-01 13:45 | 47.26017 | 11.35268 | 1894 ft | 7 kts | 351° |
| 2026-05-01 13:45 | 47.26066 | 11.35256 | 1900 ft | 12 kts | 351° |
| 2026-05-01 13:45 | 47.26122 | 11.35339 | 1901 ft | 14 kts | 79° |
| 2026-05-01 13:46 | 47.26137 | 11.35486 | 1894 ft | 16 kts | 81° |
| 2026-05-01 13:46 | 47.26116 | 11.35617 | 1893 ft | 9 kts | 121° |
| 2026-05-01 13:46 | 47.26116 | 11.35700 | 1904 ft | 10 kts | 74° |
| 2026-05-01 13:46 | 47.26158 | 11.35703 | 1891 ft | 6 kts | 291° |
| 2026-05-01 13:47 | 47.26157 | 11.35669 | 1900 ft | 0 kts | 262° |
| 2026-05-01 13:47 | 47.26157 | 11.35665 | 1901 ft | 6 kts | 262° |
| 2026-05-01 13:47 | 47.26102 | 11.35159 | 1904 ft | 94 kts | 261° |
| 2026-05-01 13:47 | 47.25962 | 11.33831 | 1901 ft | 164 kts | 261° |
| 2026-05-01 13:48 | 47.25791 | 11.32058 | 2538 ft | 177 kts | 263° |
| 2026-05-01 13:48 | 47.25600 | 11.30225 | 3484 ft | 184 kts | 262° |
| 2026-05-01 13:48 | 47.25388 | 11.28298 | 4040 ft | 201 kts | 260° |
| 2026-05-01 13:48 | 47.25209 | 11.26128 | 4299 ft | 221 kts | 267° |
| 2026-05-01 13:49 | 47.25447 | 11.23885 | 4609 ft | 229 kts | 292° |
| 2026-05-01 13:49 | 47.26135 | 11.21678 | 5081 ft | 244 kts | 296° |
| 2026-05-01 13:49 | 47.26885 | 11.19396 | 5740 ft | 251 kts | 296° |
| 2026-05-01 13:49 | 47.27666 | 11.17046 | 6469 ft | 261 kts | 297° |
| 2026-05-01 13:50 | 47.28499 | 11.14630 | 7296 ft | 267 kts | 299° |
| 2026-05-01 13:50 | 47.29373 | 11.12185 | 8110 ft | 273 kts | 295° |
| 2026-05-01 13:50 | 47.30082 | 11.09569 | 8912 ft | 278 kts | 288° |
| 2026-05-01 13:50 | 47.30536 | 11.06773 | 9731 ft | 283 kts | 279° |
| 2026-05-01 13:51 | 47.30715 | 11.03869 | 10540 ft | 286 kts | 270° |
| 2026-05-01 13:51 | 47.30607 | 11.00943 | 11316 ft | 288 kts | 262° |
| 2026-05-01 13:51 | 47.30168 | 10.98017 | 11882 ft | 297 kts | 251° |
| 2026-05-01 13:51 | 47.29380 | 10.95213 | 12460 ft | 298 kts | 241° |
| 2026-05-01 13:52 | 47.28263 | 10.92626 | 13076 ft | 304 kts | 231° |
| 2026-05-01 13:52 | 47.26830 | 10.90303 | 13734 ft | 310 kts | 221° |
| 2026-05-01 13:52 | 47.25124 | 10.88329 | 14379 ft | 314 kts | 211° |
| 2026-05-01 13:52 | 47.23202 | 10.86783 | 15023 ft | 316 kts | 201° |
| 2026-05-01 13:53 | 47.21124 | 10.85713 | 15689 ft | 317 kts | 191° |
| 2026-05-01 13:53 | 47.16754 | 10.85132 | 17112 ft | 316 kts | 172° |
| 2026-05-01 13:53 | 47.14617 | 10.85619 | 17843 ft | 313 kts | 162° |
| 2026-05-01 13:54 | 47.12560 | 10.86608 | 18602 ft | 310 kts | 152° |
| 2026-05-01 13:54 | 47.10662 | 10.88067 | 19270 ft | 306 kts | 142° |
| 2026-05-01 13:54 | 47.08976 | 10.89949 | 19953 ft | 301 kts | 133° |
| 2026-05-01 13:54 | 47.07581 | 10.92139 | 20618 ft | 290 kts | 123° |
| 2026-05-01 13:55 | 47.06475 | 10.94701 | 20712 ft | 306 kts | 108° |
| 2026-05-01 13:55 | 47.05709 | 10.97718 | 20665 ft | 326 kts | 106° |
| 2026-05-01 13:55 | 47.04924 | 11.00926 | 20232 ft | 341 kts | 106° |
| 2026-05-01 13:55 | 47.04104 | 11.04318 | 19547 ft | 370 kts | 106° |
| 2026-05-01 13:56 | 47.03226 | 11.08001 | 19324 ft | 391 kts | 106° |
| 2026-05-01 13:56 | 47.02327 | 11.11788 | 19275 ft | 395 kts | 107° |
| 2026-05-01 13:56 | 47.01424 | 11.15598 | 19295 ft | 397 kts | 106° |
| 2026-05-01 13:56 | 47.00517 | 11.19427 | 19287 ft | 397 kts | 106° |
| 2026-05-01 13:57 | 46.99611 | 11.23254 | 19285 ft | 398 kts | 106° |
| 2026-05-01 13:57 | 46.99016 | 11.25787 | 19288 ft | 397 kts | 105° |
| 2026-05-01 13:57 | 46.97783 | 11.30898 | 19284 ft | 399 kts | 110° |
| 2026-05-01 13:57 | 46.96458 | 11.34490 | 19286 ft | 404 kts | 122° |
| 2026-05-01 13:58 | 46.94430 | 11.37286 | 19281 ft | 412 kts | 146° |
| 2026-05-01 13:58 | 46.91736 | 11.38761 | 19279 ft | 419 kts | 169° |
| 2026-05-01 13:58 | 46.88812 | 11.38760 | 19270 ft | 422 kts | 186° |
| 2026-05-01 13:58 | 46.85918 | 11.37931 | 19269 ft | 425 kts | 192° |
| 2026-05-01 13:59 | 46.83047 | 11.36862 | 19262 ft | 426 kts | 193° |
| 2026-05-01 13:59 | 46.80170 | 11.35801 | 19250 ft | 424 kts | 190° |
| 2026-05-01 13:59 | 46.77264 | 11.35082 | 19263 ft | 424 kts | 185° |
| 2026-05-01 13:59 | 46.74327 | 11.34664 | 19262 ft | 425 kts | 182° |
| 2026-05-01 14:00 | 46.71369 | 11.34435 | 19258 ft | 424 kts | 180° |
| 2026-05-01 14:00 | 46.68427 | 11.34279 | 19264 ft | 424 kts | 180° |
| 2026-05-01 14:00 | 46.65467 | 11.34114 | 19261 ft | 425 kts | 180° |
| 2026-05-01 14:00 | 46.62508 | 11.33903 | 19267 ft | 426 kts | 181° |
| 2026-05-01 14:01 | 46.59548 | 11.33639 | 19273 ft | 426 kts | 182° |
| 2026-05-01 14:01 | 46.56583 | 11.33336 | 19246 ft | 427 kts | 182° |
| 2026-05-01 14:01 | 46.53625 | 11.32974 | 19242 ft | 428 kts | 186° |
| 2026-05-01 14:01 | 46.50730 | 11.31943 | 19245 ft | 430 kts | 199° |
| 2026-05-01 14:02 | 46.48037 | 11.30052 | 19244 ft | 431 kts | 212° |
| 2026-05-01 14:02 | 46.45671 | 11.27389 | 19244 ft | 431 kts | 224° |
| 2026-05-01 14:02 | 46.43745 | 11.24087 | 19283 ft | 429 kts | 237° |
| 2026-05-01 14:02 | 46.42304 | 11.20310 | 19293 ft | 428 kts | 245° |
| 2026-05-01 14:03 | 46.40982 | 11.16438 | 19295 ft | 428 kts | 245° |
| 2026-05-01 14:03 | 46.39652 | 11.12571 | 19381 ft | 429 kts | 245° |
| 2026-05-01 14:03 | 46.38316 | 11.08711 | 19382 ft | 429 kts | 245° |
| 2026-05-01 14:03 | 46.36994 | 11.04897 | 19383 ft | 429 kts | 245° |
| 2026-05-01 14:04 | 46.35652 | 11.01034 | 19384 ft | 429 kts | 245° |
| 2026-05-01 14:04 | 46.34310 | 10.97173 | 19384 ft | 429 kts | 245° |
| 2026-05-01 14:04 | 46.32967 | 10.93316 | 19375 ft | 429 kts | 244° |
| 2026-05-01 14:04 | 46.32063 | 10.90722 | 19369 ft | 429 kts | 244° |
| 2026-05-01 14:05 | 46.30287 | 10.85614 | 19343 ft | 429 kts | 244° |
| 2026-05-01 14:05 | 46.28950 | 10.81760 | 19346 ft | 429 kts | 244° |
| 2026-05-01 14:05 | 46.27611 | 10.77896 | 19342 ft | 429 kts | 244° |
| 2026-05-01 14:05 | 46.26274 | 10.74041 | 19338 ft | 429 kts | 244° |
| 2026-05-01 14:06 | 46.24935 | 10.70192 | 19337 ft | 429 kts | 244° |
| 2026-05-01 14:06 | 46.23590 | 10.66336 | 19332 ft | 429 kts | 244° |
| 2026-05-01 14:06 | 46.22246 | 10.62485 | 19332 ft | 429 kts | 244° |
| 2026-05-01 14:06 | 46.20906 | 10.58647 | 19328 ft | 428 kts | 244° |
| 2026-05-01 14:07 | 46.19562 | 10.54814 | 19324 ft | 428 kts | 244° |
| 2026-05-01 14:07 | 46.18211 | 10.50972 | 19325 ft | 429 kts | 244° |
| 2026-05-01 14:07 | 46.16861 | 10.47136 | 19331 ft | 429 kts | 244° |
| 2026-05-01 14:08 | 46.14178 | 10.39510 | 19328 ft | 428 kts | 244° |
| 2026-05-01 14:08 | 46.12832 | 10.35688 | 19319 ft | 428 kts | 244° |
| 2026-05-01 14:08 | 46.11483 | 10.31875 | 19339 ft | 427 kts | 244° |
| 2026-05-01 14:08 | 46.10128 | 10.28059 | 19344 ft | 427 kts | 244° |
| 2026-05-01 14:09 | 46.08778 | 10.24258 | 19351 ft | 426 kts | 244° |
| 2026-05-01 14:09 | 46.07424 | 10.20457 | 19351 ft | 426 kts | 243° |
| 2026-05-01 14:09 | 46.05787 | 10.16908 | 19349 ft | 427 kts | 231° |
| 2026-05-01 14:09 | 46.03697 | 10.13878 | 19368 ft | 427 kts | 219° |
| 2026-05-01 14:10 | 46.01239 | 10.11497 | 19359 ft | 426 kts | 207° |
| 2026-05-01 14:10 | 45.98517 | 10.09858 | 19348 ft | 424 kts | 195° |
| 2026-05-01 14:10 | 45.95650 | 10.08870 | 19357 ft | 424 kts | 191° |
| 2026-05-01 14:10 | 45.92775 | 10.07950 | 19343 ft | 424 kts | 191° |
| 2026-05-01 14:11 | 45.89894 | 10.07025 | 19347 ft | 424 kts | 191° |
| 2026-05-01 14:11 | 45.84132 | 10.05176 | 19345 ft | 424 kts | 192° |
| 2026-05-01 14:11 | 45.81252 | 10.04248 | 19346 ft | 424 kts | 191° |
| 2026-05-01 14:12 | 45.78362 | 10.03316 | 19351 ft | 425 kts | 191° |
| 2026-05-01 14:12 | 45.75513 | 10.02401 | 19351 ft | 425 kts | 191° |
| 2026-05-01 14:12 | 45.72627 | 10.01479 | 19361 ft | 425 kts | 191° |
| 2026-05-01 14:12 | 45.69743 | 10.00558 | 19355 ft | 425 kts | 191° |
| 2026-05-01 14:13 | 45.66852 | 9.99636 | 19356 ft | 426 kts | 191° |
| 2026-05-01 14:13 | 45.64897 | 9.99013 | 19354 ft | 426 kts | 191° |
| 2026-05-01 14:13 | 45.61063 | 9.97787 | 19356 ft | 426 kts | 191° |
| 2026-05-01 14:13 | 45.58170 | 9.96865 | 19357 ft | 426 kts | 191° |
| 2026-05-01 14:14 | 45.55282 | 9.95950 | 19352 ft | 426 kts | 191° |
| 2026-05-01 14:14 | 45.52390 | 9.95035 | 19355 ft | 426 kts | 191° |
| 2026-05-01 14:14 | 45.49496 | 9.94120 | 19354 ft | 426 kts | 191° |
| 2026-05-01 14:14 | 45.46598 | 9.93200 | 19353 ft | 426 kts | 191° |
| 2026-05-01 14:15 | 45.43702 | 9.92280 | 19354 ft | 426 kts | 191° |
| 2026-05-01 14:15 | 45.40807 | 9.91360 | 19353 ft | 426 kts | 191° |
| 2026-05-01 14:15 | 45.38890 | 9.90751 | 19353 ft | 426 kts | 191° |
| 2026-05-01 14:15 | 45.35989 | 9.89830 | 19353 ft | 426 kts | 191° |
| 2026-05-01 14:16 | 45.33092 | 9.88917 | 19357 ft | 426 kts | 191° |
| 2026-05-01 14:16 | 45.29251 | 9.87716 | 19354 ft | 427 kts | 191° |
| 2026-05-01 14:16 | 45.27289 | 9.87105 | 19351 ft | 427 kts | 191° |
| 2026-05-01 14:16 | 45.24383 | 9.86198 | 19352 ft | 427 kts | 191° |
| 2026-05-01 14:17 | 45.21490 | 9.85296 | 19346 ft | 420 kts | 191° |
| 2026-05-01 14:17 | 45.18633 | 9.84538 | 19351 ft | 421 kts | 183° |
| 2026-05-01 14:17 | 45.15713 | 9.84727 | 19351 ft | 420 kts | 166° |
| 2026-05-01 14:17 | 45.12976 | 9.86080 | 19350 ft | 416 kts | 148° |
| 2026-05-01 14:18 | 45.10668 | 9.88484 | 19351 ft | 409 kts | 131° |
| 2026-05-01 14:18 | 45.08992 | 9.91624 | 19352 ft | 403 kts | 115° |
| 2026-05-01 14:18 | 45.07994 | 9.95273 | 19354 ft | 397 kts | 99° |
| 2026-05-01 14:18 | 45.07741 | 9.99121 | 19353 ft | 391 kts | 84° |
| 2026-05-01 14:19 | 45.08222 | 10.02868 | 19360 ft | 386 kts | 69° |
| 2026-05-01 14:19 | 45.09380 | 10.06266 | 19354 ft | 382 kts | 54° |
| 2026-05-01 14:19 | 45.11116 | 10.09087 | 19350 ft | 381 kts | 40° |
| 2026-05-01 14:19 | 45.13300 | 10.11176 | 19349 ft | 380 kts | 28° |
| 2026-05-01 14:20 | 45.15634 | 10.12945 | 19344 ft | 380 kts | 28° |
| 2026-05-01 14:20 | 45.20310 | 10.16485 | 19341 ft | 381 kts | 28° |
| 2026-05-01 14:20 | 45.22648 | 10.18261 | 19343 ft | 381 kts | 28° |
| 2026-05-01 14:21 | 45.24984 | 10.20040 | 19345 ft | 381 kts | 28° |
| 2026-05-01 14:21 | 45.27321 | 10.21823 | 19346 ft | 382 kts | 28° |
| 2026-05-01 14:21 | 45.29659 | 10.23610 | 19349 ft | 382 kts | 28° |
| 2026-05-01 14:22 | 45.34340 | 10.27187 | 19340 ft | 382 kts | 28° |
| 2026-05-01 14:22 | 45.36682 | 10.28978 | 19342 ft | 382 kts | 28° |
| 2026-05-01 14:22 | 45.39026 | 10.30772 | 19343 ft | 382 kts | 28° |
| 2026-05-01 14:22 | 45.41371 | 10.32573 | 19344 ft | 383 kts | 28° |
| 2026-05-01 14:23 | 45.43714 | 10.34376 | 19346 ft | 383 kts | 28° |
| 2026-05-01 14:23 | 45.46056 | 10.36178 | 19346 ft | 383 kts | 28° |
| 2026-05-01 14:23 | 45.48398 | 10.37981 | 19348 ft | 383 kts | 28° |
| 2026-05-01 14:23 | 45.50743 | 10.39784 | 19351 ft | 383 kts | 28° |
| 2026-05-01 14:24 | 45.53091 | 10.41586 | 19351 ft | 383 kts | 28° |
| 2026-05-01 14:24 | 45.55403 | 10.43366 | 19354 ft | 383 kts | 28° |
| 2026-05-01 14:24 | 45.57750 | 10.45176 | 19355 ft | 383 kts | 29° |
| 2026-05-01 14:24 | 45.60091 | 10.46985 | 19357 ft | 383 kts | 29° |
| 2026-05-01 14:25 | 45.62432 | 10.48799 | 19355 ft | 383 kts | 29° |
| 2026-05-01 14:25 | 45.64775 | 10.50616 | 19356 ft | 383 kts | 29° |
| 2026-05-01 14:25 | 45.67118 | 10.52429 | 19355 ft | 383 kts | 29° |
| 2026-05-01 14:25 | 45.69463 | 10.54243 | 19358 ft | 383 kts | 29° |
| 2026-05-01 14:26 | 45.71806 | 10.56061 | 19360 ft | 383 kts | 29° |
| 2026-05-01 14:26 | 45.76488 | 10.59706 | 19359 ft | 383 kts | 29° |
| 2026-05-01 14:26 | 45.78829 | 10.61528 | 19361 ft | 383 kts | 29° |
| 2026-05-01 14:27 | 45.81165 | 10.63349 | 19357 ft | 382 kts | 29° |
| 2026-05-01 14:27 | 45.83501 | 10.65170 | 19354 ft | 382 kts | 29° |
| 2026-05-01 14:27 | 45.85842 | 10.66995 | 19355 ft | 383 kts | 29° |
| 2026-05-01 14:28 | 45.90517 | 10.70648 | 19353 ft | 383 kts | 29° |
| 2026-05-01 14:28 | 45.92855 | 10.72478 | 19361 ft | 382 kts | 29° |
| 2026-05-01 14:28 | 45.95190 | 10.74309 | 19364 ft | 382 kts | 29° |
| 2026-05-01 14:28 | 45.97517 | 10.76134 | 19363 ft | 381 kts | 29° |
| 2026-05-01 14:29 | 45.99850 | 10.77966 | 19365 ft | 381 kts | 29° |
| 2026-05-01 14:29 | 46.02176 | 10.79796 | 19365 ft | 381 kts | 29° |
| 2026-05-01 14:30 | 46.09119 | 10.85260 | 19359 ft | 380 kts | 29° |
| 2026-05-01 14:30 | 46.11442 | 10.87091 | 19362 ft | 381 kts | 29° |
| 2026-05-01 14:30 | 46.13768 | 10.88927 | 19357 ft | 381 kts | 29° |
| 2026-05-01 14:31 | 46.18415 | 10.92600 | 19361 ft | 381 kts | 29° |
| 2026-05-01 14:31 | 46.20741 | 10.94445 | 19363 ft | 381 kts | 29° |
| 2026-05-01 14:31 | 46.23062 | 10.96290 | 19370 ft | 381 kts | 29° |
| 2026-05-01 14:31 | 46.25388 | 10.98140 | 19375 ft | 381 kts | 29° |
| 2026-05-01 14:32 | 46.27711 | 10.99989 | 19379 ft | 381 kts | 29° |
| 2026-05-01 14:32 | 46.30034 | 11.01838 | 19381 ft | 381 kts | 29° |
| 2026-05-01 14:32 | 46.32356 | 11.03683 | 19381 ft | 381 kts | 29° |
| 2026-05-01 14:32 | 46.34681 | 11.05532 | 19379 ft | 381 kts | 29° |
| 2026-05-01 14:33 | 46.37008 | 11.07390 | 19382 ft | 381 kts | 29° |
| 2026-05-01 14:33 | 46.39329 | 11.09245 | 19382 ft | 381 kts | 29° |
| 2026-05-01 14:33 | 46.41621 | 11.11076 | 19318 ft | 381 kts | 29° |
| 2026-05-01 14:33 | 46.43942 | 11.12933 | 19306 ft | 381 kts | 29° |
| 2026-05-01 14:34 | 46.46265 | 11.14797 | 19307 ft | 381 kts | 30° |
| 2026-05-01 14:34 | 46.48586 | 11.16663 | 19306 ft | 381 kts | 29° |
| 2026-05-01 14:34 | 46.50910 | 11.18527 | 19286 ft | 381 kts | 29° |
| 2026-05-01 14:34 | 46.53238 | 11.20392 | 19289 ft | 382 kts | 29° |
| 2026-05-01 14:35 | 46.55563 | 11.22260 | 19294 ft | 382 kts | 30° |
| 2026-05-01 14:35 | 46.57891 | 11.24137 | 19296 ft | 383 kts | 30° |
| 2026-05-01 14:35 | 46.60223 | 11.26016 | 19258 ft | 381 kts | 30° |
| 2026-05-01 14:35 | 46.62509 | 11.27859 | 19262 ft | 381 kts | 30° |
| 2026-05-01 14:36 | 46.64828 | 11.29730 | 19262 ft | 381 kts | 30° |
| 2026-05-01 14:36 | 46.67152 | 11.31604 | 19259 ft | 381 kts | 30° |
| 2026-05-01 14:36 | 46.69469 | 11.33471 | 19268 ft | 382 kts | 30° |
| 2026-05-01 14:36 | 46.71795 | 11.35350 | 19268 ft | 382 kts | 30° |
| 2026-05-01 14:37 | 46.74115 | 11.37229 | 19266 ft | 381 kts | 30° |
| 2026-05-01 14:37 | 46.76432 | 11.39113 | 19269 ft | 381 kts | 30° |
| 2026-05-01 14:37 | 46.78751 | 11.40996 | 19272 ft | 382 kts | 30° |
| 2026-05-01 14:37 | 46.81077 | 11.42887 | 19275 ft | 382 kts | 29° |
| 2026-05-01 14:38 | 46.83401 | 11.44777 | 19273 ft | 382 kts | 30° |
| 2026-05-01 14:38 | 46.85729 | 11.46674 | 19275 ft | 382 kts | 30° |
| 2026-05-01 14:38 | 46.88049 | 11.48565 | 19274 ft | 382 kts | 30° |
| 2026-05-01 14:38 | 46.90361 | 11.50453 | 19265 ft | 381 kts | 30° |
| 2026-05-01 14:39 | 46.92673 | 11.52341 | 19277 ft | 381 kts | 30° |
| 2026-05-01 14:39 | 46.94987 | 11.54232 | 19278 ft | 381 kts | 30° |
| 2026-05-01 14:39 | 46.97297 | 11.56124 | 19281 ft | 380 kts | 30° |
| 2026-05-01 14:39 | 46.99604 | 11.58012 | 19274 ft | 380 kts | 30° |
| 2026-05-01 14:40 | 47.01904 | 11.59900 | 19134 ft | 373 kts | 30° |
| 2026-05-01 14:40 | 47.04114 | 11.61717 | 18919 ft | 364 kts | 30° |
| 2026-05-01 14:40 | 47.06290 | 11.63507 | 18604 ft | 355 kts | 30° |
| 2026-05-01 14:40 | 47.08432 | 11.65271 | 18110 ft | 352 kts | 30° |
| 2026-05-01 14:41 | 47.10563 | 11.67026 | 17646 ft | 349 kts | 30° |
| 2026-05-01 14:41 | 47.12672 | 11.68763 | 17185 ft | 346 kts | 30° |
| 2026-05-01 14:41 | 47.14765 | 11.70490 | 16713 ft | 343 kts | 30° |
| 2026-05-01 14:41 | 47.16840 | 11.72205 | 16257 ft | 341 kts | 30° |
| 2026-05-01 14:42 | 47.18902 | 11.73909 | 15802 ft | 339 kts | 30° |
| 2026-05-01 14:42 | 47.20948 | 11.75605 | 15352 ft | 336 kts | 31° |
| 2026-05-01 14:42 | 47.22984 | 11.77296 | 14896 ft | 335 kts | 30° |
| 2026-05-01 14:42 | 47.25013 | 11.78978 | 14444 ft | 333 kts | 30° |
| 2026-05-01 14:43 | 47.27024 | 11.80646 | 13988 ft | 331 kts | 30° |
| 2026-05-01 14:43 | 47.29030 | 11.82307 | 13491 ft | 330 kts | 30° |
| 2026-05-01 14:43 | 47.31027 | 11.83959 | 13043 ft | 328 kts | 30° |
| 2026-05-01 14:43 | 47.33007 | 11.85597 | 12588 ft | 326 kts | 30° |
| 2026-05-01 14:44 | 47.34981 | 11.87237 | 12121 ft | 324 kts | 30° |
| 2026-05-01 14:44 | 47.38898 | 11.90505 | 11181 ft | 322 kts | 31° |
| 2026-05-01 14:44 | 47.40841 | 11.92126 | 10834 ft | 315 kts | 31° |
| 2026-05-01 14:45 | 47.42672 | 11.93651 | 10703 ft | 291 kts | 31° |
| 2026-05-01 14:45 | 47.46261 | 11.94894 | 10421 ft | 259 kts | 341° |
| 2026-05-01 14:45 | 47.47639 | 11.93320 | 10363 ft | 254 kts | 303° |
| 2026-05-01 14:46 | 47.48096 | 11.90836 | 10303 ft | 256 kts | 265° |
| 2026-05-01 14:46 | 47.46054 | 11.86872 | 10188 ft | 245 kts | 209° |
| 2026-05-01 14:46 | 47.44638 | 11.85606 | 10139 ft | 237 kts | 208° |
| 2026-05-01 14:47 | 47.43237 | 11.84357 | 10080 ft | 234 kts | 208° |
| 2026-05-01 14:47 | 47.41846 | 11.83120 | 10022 ft | 233 kts | 208° |
| 2026-05-01 14:47 | 47.40450 | 11.81884 | 9795 ft | 236 kts | 209° |
| 2026-05-01 14:48 | 47.37584 | 11.79371 | 9061 ft | 244 kts | 212° |
| 2026-05-01 14:48 | 47.36382 | 11.77608 | 8716 ft | 246 kts | 238° |
| 2026-05-01 14:48 | 47.35010 | 11.72963 | 7988 ft | 250 kts | 248° |
| 2026-05-01 14:49 | 47.33671 | 11.68131 | 7190 ft | 259 kts | 248° |
| 2026-05-01 14:49 | 47.32296 | 11.63184 | 6398 ft | 257 kts | 248° |
| 2026-05-01 14:50 | 47.31410 | 11.60005 | 5841 ft | 246 kts | 249° |
| 2026-05-01 14:50 | 47.29791 | 11.54228 | 4878 ft | 215 kts | 248° |
| 2026-05-01 14:51 | 47.29237 | 11.52255 | 4580 ft | 203 kts | 247° |
| 2026-05-01 14:51 | 47.28208 | 11.48580 | 3974 ft | 185 kts | 248° |
| 2026-05-01 14:52 | 47.27294 | 11.45311 | 3434 ft | 164 kts | 248° |
| 2026-05-01 14:52 | 47.26963 | 11.43736 | 3099 ft | 159 kts | 262° |
| 2026-05-01 14:52 | 47.26682 | 11.40600 | 2671 ft | 151 kts | 262° |
| 2026-05-01 14:53 | 47.26521 | 11.39064 | 2466 ft | 153 kts | 262° |
| 2026-05-01 14:53 | 47.26351 | 11.37519 | 2212 ft | 152 kts | 259° |
| 2026-05-01 14:53 | 47.26193 | 11.35978 | 2042 ft | 153 kts | 262° |
| 2026-05-01 14:53 | 47.26044 | 11.34504 | 1906 ft | 134 kts | 262° |
| 2026-05-01 14:54 | 47.25925 | 11.33543 | 1904 ft | 44 kts | 259° |
| 2026-05-01 14:54 | 47.25905 | 11.33342 | 1900 ft | 14 kts | 258° |
| 2026-05-01 14:54 | 47.25872 | 11.33221 | 1899 ft | 12 kts | 217° |
| 2026-05-01 14:54 | 47.25836 | 11.33127 | 1899 ft | 10 kts | 263° |
| 2026-05-01 14:55 | 47.25876 | 11.33116 | 1900 ft | 10 kts | 58° |
| 2026-05-01 14:55 | 47.25896 | 11.33239 | 1895 ft | 16 kts | 82° |
| 2026-05-01 14:55 | 47.25915 | 11.33418 | 1904 ft | 18 kts | 79° |
| 2026-05-01 14:55 | 47.25931 | 11.33610 | 1904 ft | 19 kts | 96° |
| 2026-05-01 14:56 | 47.25859 | 11.33780 | 1900 ft | 20 kts | 127° |
| 2026-05-01 14:56 | 47.25779 | 11.33960 | 1897 ft | 21 kts | 109° |
| 2026-05-01 14:56 | 47.25781 | 11.34161 | 1901 ft | 18 kts | 80° |
| 2026-05-01 14:56 | 47.25801 | 11.34339 | 1904 ft | 18 kts | 81° |
| 2026-05-01 14:57 | 47.25818 | 11.34493 | 1900 ft | 9 kts | 81° |
| 2026-05-01 14:57 | 47.25837 | 11.34666 | 1895 ft | 11 kts | 81° |
| 2026-05-01 14:57 | 47.25849 | 11.34778 | 1904 ft | 9 kts | 84° |
| 2026-05-01 14:58 | 47.25821 | 11.34805 | 1898 ft | 4 kts | 163° |
| 2026-05-01 14:58 | 47.25800 | 11.34811 | 1897 ft | 3 kts | 171° |
| 2026-05-01 14:58 | 47.25794 | 11.34812 | 1899 ft | 0 kts | 171° |